createdAt,value
2023-04-03T00:02:14.880Z,103060.84
2023-04-03T00:04:58.678Z,103025.47
2023-04-03T00:07:38.323Z,102992.84
2023-04-03T00:10:06.036Z,102975.06
2023-04-03T00:12:32.932Z,103045.50
2023-04-03T00:14:59.657Z,103020.53
2023-04-03T00:17:26.588Z,102960.56
2023-04-03T00:19:53.281Z,103031.56
2023-04-03T00:22:22.859Z,102990.94
2023-04-03T00:24:59.794Z,103043.81
2023-04-03T00:27:26.444Z,102989.94
2023-04-03T00:29:53.057Z,102976.75
2023-04-03T00:32:23.080Z,102996.09
2023-04-03T00:34:49.906Z,102996.84
2023-04-03T00:37:16.764Z,102992.38
2023-04-03T00:39:43.360Z,102989.69
2023-04-03T00:42:09.975Z,102996.50
2023-04-03T00:44:37.783Z,103034.09
2023-04-03T00:47:08.060Z,102985.41
2023-04-03T00:49:36.398Z,102974.72
2023-04-03T00:52:04.012Z,102978.13
2023-04-03T00:54:30.925Z,102999.72
2023-04-03T00:57:01.858Z,103037.47
2023-04-03T00:59:34.131Z,102993.38
2023-04-03T01:02:01.608Z,103031.91
2023-04-03T01:04:38.670Z,103036.09
2023-04-03T01:07:13.562Z,102996.38
2023-04-03T01:09:41.135Z,102980.59
2023-04-03T01:12:41.011Z,103024.63
2023-04-03T01:15:24.024Z,103025.78
2023-04-03T01:17:58.368Z,103038.72
2023-04-03T01:20:36.121Z,103030.16
2023-04-03T01:23:06.853Z,103030.16
2023-04-03T01:25:34.692Z,103021.38
2023-04-03T01:28:01.477Z,103029.22
2023-04-03T01:30:55.162Z,103033.56
2023-04-03T01:33:22.108Z,102992.09
2023-04-03T01:35:49.024Z,102956.97
2023-04-03T01:38:16.094Z,102992.78
2023-04-03T01:40:43.068Z,102998.00
2023-04-03T01:43:10.080Z,103024.25
2023-04-03T01:45:36.990Z,103001.91
2023-04-03T01:48:04.270Z,103018.81
2023-04-03T01:50:31.041Z,102976.53
2023-04-03T01:52:57.785Z,102971.38
2023-04-03T01:55:24.348Z,102986.22
2023-04-03T01:57:50.855Z,103020.44
2023-04-03T02:00:17.610Z,103004.31
2023-04-03T02:02:44.205Z,102975.44
2023-04-03T02:05:10.901Z,103004.59
2023-04-03T02:07:37.436Z,103017.69
2023-04-03T02:10:04.097Z,102995.50
2023-04-03T02:12:30.712Z,103007.72
2023-04-03T02:14:57.371Z,102992.00
2023-04-03T02:17:24.039Z,102993.91
2023-04-03T02:19:50.834Z,103012.25
2023-04-03T02:22:17.474Z,102991.09
2023-04-03T02:24:44.092Z,102993.63
2023-04-03T02:27:10.893Z,103008.53
2023-04-03T02:29:37.742Z,102997.28
2023-04-03T02:32:04.638Z,102974.13
2023-04-03T02:34:31.528Z,103027.72
2023-04-03T02:36:58.139Z,102998.22
2023-04-03T02:39:24.814Z,103012.31
2023-04-03T02:41:51.457Z,102964.63
2023-04-03T02:44:18.823Z,103001.63
2023-04-03T02:46:45.727Z,102987.84
2023-04-03T02:49:12.367Z,102985.00
2023-04-03T02:51:39.219Z,102976.13
2023-04-03T02:54:05.904Z,102977.47
2023-04-03T02:56:32.564Z,103003.09
2023-04-03T02:58:59.190Z,102960.38
2023-04-03T03:01:25.840Z,103020.16
2023-04-03T03:03:52.553Z,103012.03
2023-04-03T03:06:19.345Z,102978.38
2023-04-03T03:08:46.049Z,102997.50
2023-04-03T03:11:12.932Z,103002.50
2023-04-03T03:13:40.133Z,102979.59
2023-04-03T03:16:07.225Z,102992.56
2023-04-03T03:18:34.892Z,103002.22
2023-04-03T03:21:03.420Z,102973.84
2023-04-03T03:23:33.161Z,102963.00
2023-04-03T03:26:05.921Z,103006.94
2023-04-03T03:28:39.409Z,102970.56
2023-04-03T03:31:11.916Z,102923.78
2023-04-03T03:33:38.669Z,102963.31
2023-04-03T03:36:05.615Z,102956.81
2023-04-03T03:38:32.214Z,102993.72
2023-04-03T03:40:58.941Z,102947.88
2023-04-03T03:43:25.823Z,102963.81
2023-04-03T03:45:53.656Z,102999.66
2023-04-03T03:48:21.415Z,102993.72
2023-04-03T03:50:48.990Z,102957.56
2023-04-03T03:53:17.165Z,102995.47
2023-04-03T03:55:43.895Z,102960.22
2023-04-03T03:58:10.533Z,102961.97
2023-04-03T04:00:37.455Z,102946.25
2023-04-03T04:03:05.074Z,102967.41
2023-04-03T04:05:32.043Z,102990.19
2023-04-03T04:07:58.814Z,102937.28
2023-04-03T04:10:25.552Z,102975.03
2023-04-03T04:12:52.600Z,102942.59
2023-04-03T04:15:19.499Z,102947.72
2023-04-03T04:17:46.164Z,102939.84
2023-04-03T04:20:13.495Z,102995.22
2023-04-03T04:22:40.276Z,102985.69
2023-04-03T04:25:07.459Z,102995.22
2023-04-03T04:27:34.059Z,102974.88
2023-04-03T04:30:00.824Z,102947.72
2023-04-03T04:32:27.473Z,102952.88
2023-04-03T04:34:54.142Z,102960.22
2023-04-03T04:37:20.991Z,102967.91
2023-04-03T04:39:47.570Z,102977.38
2023-04-03T04:42:16.110Z,102968.72
2023-04-03T04:44:44.273Z,102986.34
2023-04-03T04:47:11.384Z,102987.22
2023-04-03T04:49:38.191Z,102952.88
2023-04-03T04:52:05.026Z,102994.88
2023-04-03T04:54:31.891Z,102979.00
2023-04-03T04:56:58.683Z,102974.44
2023-04-03T04:59:25.570Z,102957.84
2023-04-03T05:01:52.302Z,102968.50
2023-04-03T05:04:20.429Z,102931.25
2023-04-03T05:06:47.629Z,102952.41
2023-04-03T05:09:14.420Z,102940.94
2023-04-03T05:11:41.159Z,102992.22
2023-04-03T05:14:07.884Z,102984.28
2023-04-03T05:16:35.088Z,102961.53
2023-04-03T05:19:01.829Z,102982.69
2023-04-03T05:21:33.074Z,102961.66
2023-04-03T05:24:03.776Z,102961.53
2023-04-03T05:26:37.251Z,102971.38
2023-04-03T05:29:04.517Z,102975.63
2023-04-03T05:31:31.880Z,102945.66
2023-04-03T05:34:03.020Z,102950.81
2023-04-03T05:36:33.022Z,102961.66
2023-04-03T05:39:02.708Z,102988.59
2023-04-03T05:41:29.483Z,102916.56
2023-04-03T05:44:17.665Z,102958.16
2023-04-03T05:47:03.363Z,102968.56
2023-04-03T05:49:30.356Z,102940.53
2023-04-03T05:51:57.043Z,103005.81
2023-04-03T05:54:29.581Z,102996.41
2023-04-03T05:56:59.570Z,102999.56
2023-04-03T05:59:26.593Z,103001.25
2023-04-03T06:01:59.747Z,102968.16
2023-04-03T06:04:27.398Z,103006.34
2023-04-03T06:07:08.733Z,102939.34
2023-04-03T06:09:38.681Z,102961.69
2023-04-03T06:12:05.292Z,102981.34
2023-04-03T06:14:37.806Z,102965.72
2023-04-03T06:17:08.571Z,103000.53
2023-04-03T06:19:35.479Z,102990.09
2023-04-03T06:22:02.351Z,103021.09
2023-04-03T06:24:29.193Z,102967.53
2023-04-03T06:26:58.870Z,102983.53
2023-04-03T06:29:25.796Z,103040.22
2023-04-03T06:31:57.488Z,102976.66
2023-04-03T06:41:47.237Z,103030.06
2023-04-03T06:47:00.217Z,102928.88
2023-04-03T06:49:27.311Z,102959.44
2023-04-03T06:51:57.143Z,102975.59
2023-04-03T06:54:37.772Z,102923.94
2023-04-03T06:57:25.704Z,102967.03
2023-04-03T07:08:45.816Z,102981.44
2023-04-03T07:11:23.618Z,102982.63
2023-04-03T07:13:51.225Z,102947.69
2023-04-03T07:16:33.129Z,102967.41
2023-04-03T07:19:37.167Z,102928.63
2023-04-03T07:22:44.521Z,102905.44
2023-04-03T07:25:12.125Z,102951.41
2023-04-03T07:28:03.542Z,102904.75
2023-04-03T07:30:43.400Z,102975.41
2023-04-03T07:33:11.133Z,102991.97
2023-04-03T07:39:32.007Z,102914.25
2023-04-03T07:42:28.551Z,102962.19
2023-04-03T07:45:50.410Z,102961.16
2023-04-03T07:48:48.916Z,103000.03
2023-04-03T07:52:02.835Z,102938.94
2023-04-03T07:58:23.871Z,102985.94
2023-04-03T08:01:11.849Z,102956.94
2023-04-03T08:03:47.277Z,102941.94
2023-04-03T08:13:51.867Z,102988.66
2023-04-03T08:16:42.663Z,102939.81
2023-04-03T08:19:57.015Z,102956.47
2023-04-03T08:45:23.808Z,103029.72
2023-04-03T08:52:41.804Z,103025.94
2023-04-03T08:56:24.858Z,103017.50
2023-04-03T09:21:13.526Z,103015.13
2023-04-03T09:24:09.912Z,102928.72
2023-04-03T09:26:54.095Z,102917.56
2023-04-03T09:29:25.275Z,102934.38
2023-04-03T09:31:59.635Z,102918.78
2023-04-03T09:34:44.032Z,102913.72
2023-04-03T09:37:18.014Z,102947.13
2023-04-03T09:39:57.385Z,102958.59
2023-04-03T09:42:30.378Z,102915.06
2023-04-03T09:49:57.186Z,102926.41
2023-04-03T09:52:52.432Z,102999.75
2023-04-03T10:00:12.240Z,102983.97
2023-04-03T10:10:25.204Z,102905.53
2023-04-03T10:13:12.211Z,102904.59
2023-04-03T10:16:06.898Z,102932.56
2023-04-03T10:18:46.232Z,102937.03
2023-04-03T10:25:19.277Z,102960.63
2023-04-03T10:27:50.050Z,102989.44
2023-04-03T10:30:54.998Z,102988.59
2023-04-03T10:35:02.388Z,102912.66
2023-04-03T10:37:23.455Z,102909.13
2023-04-03T10:40:46.951Z,102984.22
2023-04-03T10:43:41.333Z,102975.50
2023-04-03T10:46:35.911Z,102898.69
2023-04-03T10:49:59.373Z,102984.16
2023-04-03T10:53:04.763Z,102976.16
2023-04-03T10:55:53.299Z,102967.09
2023-04-03T10:58:52.220Z,102933.59
2023-04-03T11:01:44.708Z,102948.84
2023-04-03T11:04:19.951Z,102952.94
2023-04-03T11:07:04.285Z,102923.47
2023-04-03T11:10:04.592Z,102889.88
2023-04-03T11:17:23.027Z,102863.50
2023-04-03T11:20:38.556Z,102950.78
2023-04-03T11:23:19.392Z,102953.19
2023-04-03T11:26:19.013Z,102920.69
2023-04-03T11:29:01.664Z,102906.91
2023-04-03T11:31:52.940Z,102927.84
2023-04-03T11:34:41.289Z,102898.88
2023-04-03T11:37:21.796Z,102900.50
2023-04-03T11:40:38.191Z,102945.03
2023-04-03T11:43:39.979Z,102897.75
2023-04-03T11:49:04.373Z,102843.09
2023-04-03T11:51:42.776Z,102936.25
2023-04-03T11:55:04.885Z,102929.03
2023-04-03T11:58:04.289Z,102914.53
2023-04-03T12:01:02.572Z,102919.28
2023-04-03T12:10:33.005Z,102875.22
2023-04-03T12:13:04.945Z,102847.22
2023-04-03T12:15:37.958Z,102900.19
2023-04-03T12:18:45.223Z,102896.41
2023-04-03T12:24:32.197Z,102895.41
2023-04-03T12:33:30.753Z,102879.69
2023-04-03T12:36:54.446Z,102884.88
2023-04-03T12:39:57.686Z,102885.91
2023-04-03T12:43:14.874Z,102879.84
2023-04-03T12:46:22.156Z,102805.84
2023-04-03T12:49:20.516Z,102826.81
2023-04-03T12:55:23.050Z,102834.47
2023-04-03T13:02:28.750Z,102851.25
2023-04-03T13:05:33.016Z,102851.19
2023-04-03T13:08:25.214Z,102776.34
2023-04-03T13:11:47.182Z,102766.81
2023-04-03T13:14:45.359Z,102819.09
2023-04-03T13:18:08.040Z,102785.28
2023-04-03T13:21:27.218Z,102779.06
2023-04-03T13:25:02.708Z,102827.63
2023-04-03T13:27:44.899Z,102746.81
2023-04-03T13:30:37.694Z,102741.59
2023-04-03T13:33:36.050Z,102750.41
2023-04-03T13:36:49.318Z,102776.47
2023-04-03T13:39:16.047Z,102814.56
2023-04-03T13:45:27.811Z,102812.47
2023-04-03T13:48:22.172Z,102772.41
2023-04-03T13:51:02.337Z,102803.47
2023-04-03T13:53:31.995Z,102729.31
2023-04-03T13:56:01.109Z,102742.13
2023-04-03T13:59:22.262Z,102709.13
2023-04-03T14:02:25.717Z,102764.59
2023-04-03T14:05:02.590Z,102715.84
2023-04-03T14:07:44.454Z,102754.91
2023-04-03T14:10:51.238Z,102744.53
2023-04-03T14:13:30.209Z,102740.13
2023-04-03T14:16:22.125Z,102799.16
2023-04-03T14:18:59.523Z,102752.06
2023-04-03T14:22:17.538Z,102722.19
2023-04-03T14:24:47.936Z,102722.97
2023-04-03T14:31:31.453Z,102767.63
2023-04-03T14:34:01.338Z,102693.56
2023-04-03T14:36:35.291Z,102712.44
2023-04-03T14:39:17.262Z,102723.00
2023-04-03T14:41:44.409Z,102718.50
2023-04-03T14:44:11.409Z,102741.69
2023-04-03T14:47:20.017Z,102737.16
2023-04-03T14:50:33.580Z,102686.69
2023-04-03T14:53:00.496Z,102756.56
2023-04-03T14:55:29.093Z,102694.53
2023-04-03T14:58:01.551Z,102705.38
2023-04-03T15:00:28.184Z,102683.41
2023-04-03T15:02:54.918Z,102708.69
2023-04-03T15:05:21.911Z,102712.19
2023-04-03T15:08:29.471Z,102736.25
2023-04-03T15:11:37.023Z,102697.09
2023-04-03T15:14:36.576Z,102663.50
2023-04-03T15:17:07.026Z,102699.38
2023-04-03T15:19:41.787Z,102696.94
2023-04-03T15:22:19.769Z,102692.50
2023-04-03T15:24:53.417Z,102656.97
2023-04-03T15:30:28.823Z,102669.06
2023-04-03T15:33:21.230Z,102685.69
2023-04-03T15:36:17.218Z,102685.91
2023-04-03T15:39:02.702Z,102644.22
2023-04-03T15:41:34.566Z,102673.66
2023-04-03T15:44:10.090Z,102633.97
2023-04-03T15:46:39.969Z,102633.22
2023-04-03T15:49:31.680Z,102676.75
2023-04-03T15:52:00.260Z,102685.78
2023-04-03T15:54:52.872Z,102657.50
2023-04-03T16:00:09.030Z,102637.94
2023-04-03T16:02:42.349Z,102674.56
2023-04-03T16:05:14.485Z,102680.56
2023-04-03T16:07:44.552Z,102657.78
2023-04-03T16:10:22.989Z,102732.28
2023-04-03T16:12:49.730Z,102641.16
2023-04-03T16:15:18.921Z,102652.44
2023-04-03T16:21:01.205Z,102685.16
2023-04-03T16:23:47.542Z,102647.22
2023-04-03T16:26:47.795Z,102676.34
2023-04-03T16:29:17.518Z,102651.47
2023-04-03T16:31:44.510Z,102654.22
2023-04-03T16:34:27.002Z,102657.75
2023-04-03T16:36:54.109Z,102663.94
2023-04-03T16:39:23.397Z,102694.56
2023-04-03T16:41:49.954Z,102661.78
2023-04-03T16:44:16.826Z,102719.38
2023-04-03T16:46:47.073Z,102697.88
2023-04-03T16:49:18.341Z,102649.41
2023-04-03T16:51:49.722Z,102683.53
2023-04-03T16:54:24.013Z,102691.47
2023-04-03T16:56:50.558Z,102700.25
2023-04-03T16:59:20.305Z,102654.25
2023-04-03T17:01:49.292Z,102683.91
2023-04-03T17:04:16.097Z,102666.69
2023-04-03T17:06:50.194Z,102676.38
2023-04-03T17:09:16.843Z,102699.03
2023-04-03T17:11:53.767Z,102700.78
2023-04-03T17:14:46.861Z,102685.19
2023-04-03T17:17:22.834Z,102657.38
2023-04-03T17:20:04.520Z,102712.25
2023-04-03T17:22:41.891Z,102723.69
2023-04-03T17:25:11.880Z,102679.41
2023-04-03T17:27:43.354Z,102687.41
2023-04-03T17:30:10.848Z,102678.78
2023-04-03T17:32:38.817Z,102686.69
2023-04-03T17:35:11.072Z,102703.28
2023-04-03T17:37:42.308Z,102684.13
2023-04-03T17:40:09.396Z,102725.09
2023-04-03T17:42:36.006Z,102692.84
2023-04-03T17:45:03.251Z,102692.81
2023-04-03T17:47:45.106Z,102675.31
2023-04-03T17:50:17.335Z,102687.47
2023-04-03T17:52:44.450Z,102703.06
2023-04-03T17:55:15.473Z,102702.97
2023-04-03T17:57:44.898Z,102754.41
2023-04-03T18:00:12.659Z,102746.50
2023-04-03T18:02:46.905Z,102692.34
2023-04-03T18:05:15.974Z,102700.97
2023-04-03T18:07:45.204Z,102724.47
2023-04-03T18:10:12.118Z,102695.63
2023-04-03T18:12:42.543Z,102699.00
2023-04-03T18:15:09.627Z,102726.88
2023-04-03T18:17:36.175Z,102702.34
2023-04-03T18:20:03.302Z,102731.09
2023-04-03T18:22:30.170Z,102699.56
2023-04-03T18:25:06.015Z,102709.09
2023-04-03T18:27:32.849Z,102657.38
2023-04-03T18:30:03.380Z,102701.88
2023-04-03T18:32:30.140Z,102696.66
2023-04-03T18:34:56.976Z,102697.38
2023-04-03T18:37:28.316Z,102659.72
2023-04-03T18:40:02.724Z,102677.91
2023-04-03T18:42:30.854Z,102688.28
2023-04-03T18:45:21.470Z,102695.06
2023-04-03T18:50:55.964Z,102694.69
2023-04-03T18:53:31.499Z,102690.22
2023-04-03T18:55:59.508Z,102710.16
2023-04-03T18:58:27.804Z,102673.38
2023-04-03T19:00:54.529Z,102727.44
2023-04-03T19:03:24.193Z,102676.59
2023-04-03T19:05:54.040Z,102754.31
2023-04-03T19:08:21.895Z,102731.50
2023-04-03T19:10:48.635Z,102683.19
2023-04-03T19:13:15.358Z,102729.44
2023-04-03T19:15:42.909Z,102737.22
2023-04-03T19:18:12.586Z,102729.13
2023-04-03T19:20:39.074Z,102739.53
2023-04-03T19:23:05.919Z,102744.56
2023-04-03T19:25:41.269Z,102740.97
2023-04-03T19:28:13.713Z,102734.59
2023-04-03T19:30:50.564Z,102736.97
2023-04-03T19:33:17.813Z,102787.72
2023-04-03T19:35:44.875Z,102726.19
2023-04-03T19:38:13.879Z,102775.94
2023-04-03T19:40:46.319Z,102696.84
2023-04-03T19:43:27.507Z,102730.94
2023-04-03T19:45:56.503Z,102760.50
2023-04-03T19:48:40.354Z,102771.75
2023-04-03T19:51:08.419Z,102698.94
2023-04-03T19:53:35.437Z,102770.72
2023-04-03T19:56:02.654Z,102712.78
2023-04-03T19:58:30.106Z,102768.59
2023-04-03T20:01:03.357Z,102773.84
2023-04-03T20:03:30.468Z,102748.34
2023-04-03T20:06:04.968Z,102738.53
2023-04-03T20:08:31.941Z,102752.41
2023-04-03T20:11:04.424Z,102748.72
2023-04-03T20:17:09.101Z,102731.84
2023-04-03T20:19:36.937Z,102772.91
2023-04-03T20:22:03.670Z,102785.19
2023-04-03T20:24:34.049Z,102756.16
2023-04-03T20:27:04.041Z,102735.84
2023-04-03T20:29:56.290Z,102731.44
2023-04-03T20:32:23.032Z,102763.81
2023-04-03T20:35:03.477Z,102760.97
2023-04-03T20:37:43.036Z,102755.47
2023-04-03T20:40:41.019Z,102829.81
2023-04-03T20:43:09.690Z,102779.03
2023-04-03T20:45:38.673Z,102821.03
2023-04-03T20:48:06.470Z,102791.13
2023-04-03T20:50:34.621Z,102783.13
2023-04-03T20:53:04.292Z,102784.66
2023-04-03T20:55:33.658Z,102769.81
2023-04-03T20:58:01.898Z,102762.56
2023-04-03T21:00:30.210Z,102793.97
2023-04-03T21:02:57.898Z,102791.25
2023-04-03T21:05:26.288Z,102798.19
2023-04-03T21:08:32.140Z,102820.06
2023-04-03T21:11:36.612Z,102821.59
2023-04-03T21:14:42.428Z,102816.22
2023-04-03T21:17:11.712Z,102816.09
2023-04-03T21:19:45.963Z,102822.94
2023-04-03T21:22:14.009Z,102794.78
2023-04-03T21:24:41.076Z,102756.09
2023-04-03T21:27:12.905Z,102767.31
2023-04-03T21:29:40.860Z,102717.97
2023-04-03T21:32:10.058Z,102732.84
2023-04-03T21:34:42.697Z,102766.84
2023-04-03T21:37:14.956Z,102744.75
2023-04-03T21:39:47.389Z,102758.47
2023-04-03T21:42:21.831Z,102783.78
2023-04-03T21:44:51.641Z,102775.69
2023-04-03T21:47:48.809Z,102736.03
2023-04-03T21:50:22.151Z,102773.50
2023-04-03T21:52:58.862Z,102744.53
2023-04-03T21:59:36.272Z,102823.78
2023-04-03T22:02:05.924Z,102794.59
2023-04-03T22:04:32.977Z,102767.25
2023-04-03T22:07:01.693Z,102809.28
2023-04-03T22:09:28.277Z,102803.81
2023-04-03T22:11:55.211Z,102818.53
2023-04-03T22:14:22.002Z,102792.88
2023-04-03T22:16:48.752Z,102794.44
2023-04-03T22:19:15.613Z,102801.28
2023-04-03T22:21:42.572Z,102795.91
2023-04-03T22:24:09.103Z,102806.22
2023-04-03T22:26:36.473Z,102777.94
2023-04-03T22:29:07.013Z,102800.63
2023-04-03T22:31:36.894Z,102804.84
2023-04-03T22:34:05.135Z,102784.50
2023-04-03T22:36:33.931Z,102783.50
2023-04-03T22:39:00.652Z,102786.69
2023-04-03T22:41:27.299Z,102796.94
2023-04-03T22:43:53.862Z,102835.38
2023-04-03T22:46:20.823Z,102812.50
2023-04-03T22:48:48.163Z,102830.78
2023-04-03T22:51:14.710Z,102816.63
2023-04-03T22:53:41.431Z,102812.88
2023-04-03T22:56:08.760Z,102800.59
2023-04-03T22:58:35.588Z,102831.97
2023-04-03T23:01:11.339Z,102803.81
2023-04-03T23:03:42.197Z,102828.25
2023-04-03T23:06:10.089Z,102804.47
2023-04-03T23:08:40.936Z,102845.47
2023-04-03T23:11:09.196Z,102850.53
2023-04-03T23:13:36.203Z,102852.28
2023-04-03T23:16:03.868Z,102825.94
2023-04-03T23:18:32.256Z,102846.06
2023-04-03T23:20:59.599Z,102815.16
2023-04-03T23:23:26.321Z,102831.66
2023-04-03T23:25:59.607Z,102800.81
2023-04-03T23:28:27.206Z,102812.00
2023-04-03T23:31:06.872Z,102835.41
2023-04-03T23:33:33.989Z,102835.22
2023-04-03T23:36:06.594Z,102816.69
2023-04-03T23:38:33.362Z,102819.28
2023-04-03T23:40:59.889Z,102831.34
2023-04-03T23:43:26.875Z,102803.34
2023-04-03T23:45:54.174Z,102817.28
2023-04-03T23:48:20.711Z,102828.72
2023-04-03T23:50:47.301Z,102798.66
2023-04-03T23:53:13.871Z,102818.78
2023-04-03T23:55:41.347Z,102786.31
2023-04-03T23:58:07.900Z,102823.94
